Time;durP1;ratioP1;P1;durP2;ratioP2;P2;SDS_P1;SDS_P2;PMS_P1;PMS_P2;Temp;Humidity;BMP_temperature;BMP_pressure;BME280_temperature;BME280_humidity;BME280_pressure;Samples;Min_cycle;Max_cycle;Signal;HPM_P1;HPM_P2
2021/03/26 00:02:14;;;;;;;10.45;5.80;;;11.00;66.60;;;;;;6246396;23;20432;-73
2021/03/26 00:04:39;;;;;;;10.73;4.63;;;11.00;66.60;;;;;;6243671;23;20435;-73
2021/03/26 00:07:06;;;;;;;9.68;4.68;;;11.00;66.60;;;;;;6246256;23;20000;-73
2021/03/26 00:09:35;;;;;;;9.98;5.30;;;10.90;66.80;;;;;;6244016;23;20007;-73
2021/03/26 00:12:09;;;;;;;10.10;5.25;;;10.90;66.90;;;;;;6246023;23;20016;-74
2021/03/26 00:14:34;;;;;;;9.20;4.82;;;10.90;67.10;;;;;;6245073;23;20028;-73
2021/03/26 00:17:00;;;;;;;8.10;5.18;;;10.80;67.50;;;;;;6246038;23;20034;-73
2021/03/26 00:19:26;;;;;;;7.85;5.65;;;10.70;67.70;;;;;;6243904;23;20083;-73
2021/03/26 00:21:51;;;;;;;11.70;5.38;;;10.60;68.00;;;;;;6270011;22;20424;-73
2021/03/26 00:24:17;;;;;;;9.45;5.07;;;10.60;68.20;;;;;;6245599;23;20007;-73
2021/03/26 00:26:42;;;;;;;11.45;5.63;;;10.50;68.30;;;;;;6243379;23;20431;-73
2021/03/26 00:29:11;;;;;;;11.82;6.07;;;10.50;68.70;;;;;;6245620;23;19997;-72
2021/03/26 00:31:38;;;;;;;10.40;5.10;;;10.50;69.00;;;;;;6244608;23;19996;-72
2021/03/26 00:34:03;;;;;;;12.68;5.95;;;10.50;68.80;;;;;;6244093;23;20000;-72
2021/03/26 00:36:31;;;;;;;9.55;5.30;;;10.40;69.10;;;;;;6242906;23;20096;-72
2021/03/26 00:38:57;;;;;;;10.10;5.55;;;10.40;69.30;;;;;;6244021;23;20004;-72
2021/03/26 00:41:23;;;;;;;13.20;5.28;;;10.40;69.30;;;;;;6268756;22;20000;-74
2021/03/26 00:43:49;;;;;;;11.75;5.63;;;10.40;69.60;;;;;;6243404;23;20011;-72
2021/03/26 00:46:14;;;;;;;10.00;4.93;;;10.30;69.50;;;;;;6243354;23;20123;-72
2021/03/26 00:48:40;;;;;;;9.68;5.20;;;10.30;69.90;;;;;;6242871;23;20189;-72
2021/03/26 00:51:06;;;;;;;10.23;5.60;;;10.20;70.20;;;;;;6243908;23;20007;-72
2021/03/26 00:53:34;;;;;;;11.07;5.78;;;10.30;70.20;;;;;;6242965;23;20011;-73
2021/03/26 00:56:00;;;;;;;12.18;5.30;;;10.30;70.10;;;;;;6269353;22;20040;-73
2021/03/26 00:58:27;;;;;;;12.20;5.78;;;10.30;70.00;;;;;;6242952;23;20083;-72
2021/03/26 01:00:53;;;;;;;10.40;5.35;;;10.20;70.00;;;;;;6243647;23;20011;-72
2021/03/26 01:03:20;;;;;;;11.93;5.72;;;10.10;70.40;;;;;;6243943;23;20518;-72
2021/03/26 01:05:50;;;;;;;10.27;5.68;;;10.20;70.40;;;;;;6268523;22;20004;-72
2021/03/26 01:08:17;;;;;;;12.88;5.97;;;10.20;70.30;;;;;;6243940;23;20011;-72
2021/03/26 01:10:46;;;;;;;12.70;5.60;;;10.20;70.40;;;;;;6243053;23;20003;-72
2021/03/26 01:13:16;;;;;;;12.25;6.07;;;10.20;70.40;;;;;;6244783;23;20443;-72
2021/03/26 01:15:43;;;;;;;14.43;6.05;;;10.20;70.30;;;;;;6242386;23;20528;-72
2021/03/26 01:18:14;;;;;;;12.02;5.82;;;10.20;70.40;;;;;;6244818;23;20000;-72
2021/03/26 01:20:40;;;;;;;8.95;5.07;;;10.10;70.60;;;;;;6242973;23;20027;-72
2021/03/26 01:23:06;;;;;;;12.38;5.93;;;10.00;70.90;;;;;;6245455;23;20423;-72
2021/03/26 01:25:37;;;;;;;12.65;5.78;;;10.00;70.90;;;;;;6244334;23;20004;-72
2021/03/26 01:28:04;;;;;;;11.30;5.75;;;10.00;70.90;;;;;;6243606;23;20000;-73
2021/03/26 01:30:31;;;;;;;11.65;6.13;;;10.00;70.90;;;;;;6242212;23;20444;-73
2021/03/26 01:32:58;;;;;;;11.57;5.75;;;10.10;70.70;;;;;;6243487;23;20000;-73
2021/03/26 01:35:25;;;;;;;13.32;6.32;;;10.00;70.80;;;;;;6242418;23;20065;-76
2021/03/26 01:37:51;;;;;;;10.75;6.20;;;10.00;70.80;;;;;;6242738;23;20000;-73
2021/03/26 01:40:23;;;;;;;12.77;6.25;;;10.00;71.00;;;;;;6243257;23;20007;-73
2021/03/26 01:42:49;;;;;;;11.20;6.20;;;9.90;71.20;;;;;;6244255;23;20011;-73
2021/03/26 01:45:21;;;;;;;11.93;5.65;;;9.90;71.30;;;;;;6244949;22;20087;-72
2021/03/26 01:47:47;;;;;;;10.48;5.72;;;9.80;71.60;;;;;;6243911;23;19992;-73
2021/03/26 01:50:16;;;;;;;11.20;5.90;;;9.70;71.70;;;;;;6243312;23;20055;-73
2021/03/26 01:52:43;;;;;;;16.23;6.30;;;9.70;72.00;;;;;;6242846;23;20008;-73
2021/03/26 01:55:10;;;;;;;10.32;5.70;;;9.60;72.00;;;;;;6244809;23;19992;-73
2021/03/26 01:57:36;;;;;;;10.10;5.50;;;9.60;72.10;;;;;;6242456;23;20081;-73
2021/03/26 02:00:13;;;;;;;9.23;5.50;;;9.60;72.10;;;;;;6244998;23;20015;-73
2021/03/26 02:02:39;;;;;;;10.88;5.22;;;9.70;72.00;;;;;;6242479;23;19996;-73
2021/03/26 02:05:09;;;;;;;10.98;5.80;;;9.60;71.90;;;;;;6243370;23;19996;-73
2021/03/26 02:07:35;;;;;;;8.90;5.80;;;9.50;72.20;;;;;;6242543;23;20004;-72
2021/03/26 02:10:01;;;;;;;10.77;5.53;;;9.50;72.50;;;;;;6269031;22;20015;-72
2021/03/26 02:12:32;;;;;;;10.20;5.32;;;9.40;72.80;;;;;;6242332;23;20425;-76
2021/03/26 02:15:05;;;;;;;9.35;4.93;;;9.50;72.80;;;;;;6244871;23;20466;-73
2021/03/26 02:17:33;;;;;;;14.25;5.93;;;9.50;72.60;;;;;;6242187;23;20009;-73
2021/03/26 02:20:31;;;;;;;11.93;5.93;;;9.50;72.50;;;;;;6243216;23;20008;-73
2021/03/26 02:22:58;;;;;;;10.63;4.82;;;9.50;72.10;;;;;;6241934;23;20007;-74
2021/03/26 02:25:26;;;;;;;12.80;5.80;;;9.40;71.60;;;;;;6243307;23;20032;-72
2021/03/26 02:27:51;;;;;;;11.27;5.57;;;9.30;72.30;;;;;;6242681;23;20017;-72
2021/03/26 02:30:22;;;;;;;15.50;5.38;;;9.10;71.90;;;;;;6243385;23;20016;-72
2021/03/26 02:32:48;;;;;;;8.68;4.82;;;9.00;72.30;;;;;;6242587;23;20015;-73
2021/03/26 02:35:29;;;;;;;14.45;5.55;;;9.00;72.50;;;;;;6243551;23;20012;-73
2021/03/26 02:38:15;;;;;;;10.13;5.10;;;9.00;72.60;;;;;;6243060;23;20039;-73
2021/03/26 02:41:18;;;;;;;8.38;5.05;;;9.00;72.30;;;;;;6242456;23;19997;-73
2021/03/26 02:43:49;;;;;;;11.02;5.78;;;9.00;73.00;;;;;;6242328;23;20035;-73
2021/03/26 02:46:32;;;;;;;10.55;5.63;;;9.10;73.20;;;;;;6243522;23;20016;-73
2021/03/26 02:49:18;;;;;;;12.90;5.97;;;9.10;73.30;;;;;;6245743;23;19996;-73
2021/03/26 02:51:43;;;;;;;10.90;5.88;;;9.10;73.40;;;;;;6269789;22;20035;-73
2021/03/26 02:54:23;;;;;;;9.80;5.30;;;9.10;73.30;;;;;;6245061;22;20335;-73
2021/03/26 02:57:07;;;;;;;14.40;5.35;;;9.10;73.30;;;;;;6245650;23;20007;-73
2021/03/26 02:59:49;;;;;;;12.77;5.35;;;9.10;73.60;;;;;;6243470;23;20438;-74
2021/03/26 03:02:18;;;;;;;11.50;5.85;;;9.10;74.00;;;;;;6246756;23;19997;-73
2021/03/26 03:04:59;;;;;;;9.48;5.13;;;8.80;72.50;;;;;;6244219;23;20130;-73
2021/03/26 03:07:35;;;;;;;11.13;5.68;;;8.60;72.70;;;;;;6270814;22;20004;-72
2021/03/26 03:10:19;;;;;;;10.48;6.00;;;8.40;73.30;;;;;;6245307;23;20134;-72
2021/03/26 03:12:46;;;;;;;9.55;5.88;;;8.30;73.70;;;;;;6245772;23;20055;-72
2021/03/26 03:15:23;;;;;;;10.50;5.22;;;8.40;74.00;;;;;;6244661;23;20031;-73
2021/03/26 03:18:08;;;;;;;9.93;5.68;;;8.40;73.40;;;;;;6244325;23;20059;-72
2021/03/26 03:20:42;;;;;;;9.52;5.57;;;8.30;73.40;;;;;;6244074;23;20001;-73
2021/03/26 03:23:28;;;;;;;10.00;5.18;;;8.10;73.70;;;;;;6244942;23;20008;-73
2021/03/26 03:26:03;;;;;;;12.32;5.97;;;8.00;74.30;;;;;;6245344;23;20335;-73
2021/03/26 03:28:36;;;;;;;11.75;6.28;;;8.00;75.10;;;;;;6232694;23;20087;-73
2021/03/26 03:31:07;;;;;;;12.35;5.90;;;8.00;76.00;;;;;;6244641;23;20030;-72
2021/03/26 03:33:59;;;;;;;12.38;5.75;;;8.10;76.00;;;;;;6245860;23;20002;-74
2021/03/26 03:36:31;;;;;;;11.50;6.07;;;8.00;75.30;;;;;;6219373;23;20004;-72
2021/03/26 03:39:05;;;;;;;10.40;5.60;;;7.80;74.90;;;;;;6244422;23;20086;-72
2021/03/26 03:41:39;;;;;;;12.93;6.05;;;7.70;74.90;;;;;;6244907;23;20004;-79
2021/03/26 03:44:21;;;;;;;10.18;5.43;;;7.60;75.10;;;;;;6244827;23;20010;-72
2021/03/26 03:46:49;;;;;;;;;;;7.60;75.10;;;;;;6269910;22;20098;-72
2021/03/26 03:49:30;;;;;;;8.80;5.43;;;7.60;75.20;;;;;;6244579;23;19906;-73
2021/03/26 03:52:10;;;;;;;8.50;5.30;;;7.50;75.20;;;;;;6269197;22;20015;-73
2021/03/26 03:55:01;;;;;;;12.18;5.32;;;7.40;75.40;;;;;;6244058;23;20004;-74
2021/03/26 03:57:32;;;;;;;10.20;5.43;;;7.40;75.60;;;;;;6244571;23;20038;-72
2021/03/26 04:00:11;;;;;;;10.00;5.60;;;7.30;75.60;;;;;;6244963;23;20001;-73
2021/03/26 04:03:01;;;;;;;9.63;5.63;;;7.30;75.30;;;;;;6243780;23;20000;-74
2021/03/26 04:05:59;;;;;;;11.45;5.72;;;7.20;75.30;;;;;;6246212;23;20004;-73
2021/03/26 04:08:46;;;;;;;10.47;5.23;;;7.10;75.50;;;;;;6245989;23;20004;-72
2021/03/26 04:11:11;;;;;;;9.87;5.13;;;7.10;75.70;;;;;;6270171;22;20062;-73
2021/03/26 04:13:42;;;;;;;13.47;5.20;;;7.00;75.70;;;;;;6243770;23;20008;-73
2021/03/26 04:16:12;;;;;;;12.07;5.60;;;7.00;75.80;;;;;;6244560;23;20335;-72
2021/03/26 04:18:55;;;;;;;10.33;5.23;;;6.90;76.00;;;;;;6244890;23;19996;-73
2021/03/26 04:21:24;;;;;;;11.10;5.40;;;6.90;76.30;;;;;;6219528;23;20005;-73
2021/03/26 04:23:56;;;;;;;10.33;4.87;;;7.00;76.00;;;;;;6243480;23;20015;-73
2021/03/26 04:26:24;;;;;;;11.10;5.63;;;7.00;75.50;;;;;;6219020;23;20008;-73
2021/03/26 04:29:00;;;;;;;9.53;5.13;;;6.90;75.20;;;;;;6217882;23;20011;-73
2021/03/26 04:31:33;;;;;;;10.03;5.13;;;6.80;75.70;;;;;;6244118;23;20415;-73
2021/03/26 04:33:59;;;;;;;8.53;4.93;;;6.60;76.10;;;;;;6218001;23;20100;-73
2021/03/26 04:36:31;;;;;;;8.37;5.03;;;6.60;76.90;;;;;;6218557;23;20044;-73
2021/03/26 04:39:17;;;;;;;9.27;5.00;;;6.50;77.10;;;;;;6217735;23;20008;-73
2021/03/26 04:41:48;;;;;;;11.33;5.93;;;6.50;77.20;;;;;;6217786;23;20000;-73
2021/03/26 04:44:32;;;;;;;12.90;5.53;;;6.50;77.20;;;;;;6218373;23;20011;-72
2021/03/26 04:47:07;;;;;;;9.23;4.93;;;6.50;77.50;;;;;;6217925;23;20058;-73
2021/03/26 04:49:38;;;;;;;9.90;5.50;;;6.40;77.40;;;;;;6218871;23;20032;-73
2021/03/26 04:52:14;;;;;;;8.83;4.97;;;6.40;77.40;;;;;;6219076;23;20010;-73
2021/03/26 04:54:54;;;;;;;9.07;5.33;;;6.40;77.80;;;;;;6217769;23;20003;-74
2021/03/26 04:57:29;;;;;;;15.13;6.03;;;6.40;78.00;;;;;;6245460;23;20008;-73
2021/03/26 05:00:14;;;;;;;9.27;5.20;;;6.50;77.60;;;;;;6217708;23;20070;-73
2021/03/26 05:02:45;;;;;;;10.47;5.13;;;6.50;76.80;;;;;;6216618;23;20026;-74
2021/03/26 05:05:12;;;;;;;9.00;5.33;;;6.50;77.10;;;;;;6218648;23;20004;-72
2021/03/26 05:07:42;;;;;;;9.13;5.50;;;6.50;77.60;;;;;;6218056;23;20042;-76
2021/03/26 05:10:16;;;;;;;10.47;5.40;;;6.40;77.60;;;;;;6218726;23;20087;-73
2021/03/26 05:12:57;;;;;;;16.07;5.90;;;6.40;78.10;;;;;;6217626;23;20004;-73
2021/03/26 05:15:27;;;;;;;10.17;5.00;;;6.30;78.10;;;;;;6234944;23;20023;-73
2021/03/26 05:18:06;;;;;;;10.27;5.23;;;6.20;78.30;;;;;;6242753;23;20016;-73
2021/03/26 05:20:33;;;;;;;8.93;5.50;;;6.20;78.90;;;;;;6244981;23;20450;-72
2021/03/26 05:23:11;;;;;;;11.93;5.47;;;6.20;78.10;;;;;;6244376;23;19992;-73
2021/03/26 05:25:44;;;;;;;11.00;5.30;;;6.30;77.60;;;;;;6244921;23;19996;-74
2021/03/26 05:28:33;;;;;;;9.07;5.27;;;6.30;77.40;;;;;;6243570;23;20075;-73
2021/03/26 05:31:36;;;;;;;11.10;4.90;;;6.30;77.20;;;;;;6242542;23;20000;-72
2021/03/26 05:34:17;;;;;;;9.17;5.33;;;6.20;77.80;;;;;;6223983;23;20011;-73
2021/03/26 05:37:12;;;;;;;11.10;5.67;;;6.20;77.50;;;;;;6217486;23;20040;-73
2021/03/26 05:39:39;;;;;;;10.07;5.37;;;6.20;77.20;;;;;;6243365;23;20004;-74
2021/03/26 05:42:29;;;;;;;11.47;5.07;;;6.10;76.80;;;;;;6242836;23;20008;-72
2021/03/26 05:45:26;;;;;;;9.90;5.03;;;6.10;77.50;;;;;;6242866;23;20013;-72
2021/03/26 05:48:26;;;;;;;10.80;5.70;;;6.00;77.80;;;;;;6244328;23;20000;-72
2021/03/26 05:51:00;;;;;;;10.00;5.50;;;6.10;77.80;;;;;;6244173;23;20069;-72
2021/03/26 05:53:33;;;;;;;9.83;4.93;;;6.10;77.90;;;;;;6243568;23;20122;-72
2021/03/26 05:56:01;;;;;;;9.77;4.80;;;6.00;78.20;;;;;;6244201;23;20004;-72
2021/03/26 05:59:01;;;;;;;10.97;5.20;;;6.00;78.90;;;;;;6243535;22;20066;-72
2021/03/26 06:01:46;;;;;;;10.13;5.67;;;6.00;79.40;;;;;;6214761;23;20011;-73
2021/03/26 06:04:29;;;;;;;9.13;4.90;;;6.00;79.40;;;;;;6243381;23;20071;-73
2021/03/26 06:07:10;;;;;;;12.50;5.47;;;6.00;79.50;;;;;;6242256;23;20011;-73
2021/03/26 06:10:02;;;;;;;9.80;5.50;;;6.10;80.10;;;;;;6243291;22;20000;-72
2021/03/26 06:12:44;;;;;;;11.75;5.78;;;6.10;80.00;;;;;;6237190;23;20012;-72
2021/03/26 06:15:37;;;;;;;9.48;5.72;;;6.20;79.80;;;;;;6242931;23;20020;-72
2021/03/26 06:18:51;;;;;;;11.50;5.63;;;6.20;79.90;;;;;;6242299;23;20240;-72
2021/03/26 06:21:44;;;;;;;11.50;5.40;;;6.20;80.20;;;;;;6217463;23;20047;-72
2021/03/26 06:24:51;;;;;;;12.03;5.50;;;6.30;80.20;;;;;;6245947;23;20436;-72
2021/03/26 06:27:41;;;;;;;10.30;5.53;;;6.30;81.20;;;;;;6246950;23;20004;-72
2021/03/26 06:30:13;;;;;;;14.57;5.40;;;6.50;81.50;;;;;;6244497;23;20000;-73
2021/03/26 06:32:47;;;;;;;10.00;5.03;;;6.60;81.20;;;;;;6246885;23;19999;-73
2021/03/26 06:35:57;;;;;;;12.63;5.77;;;6.70;81.00;;;;;;6246285;23;20008;-72
2021/03/26 06:38:28;;;;;;;8.77;4.90;;;6.80;81.20;;;;;;6199126;23;20023;-72
2021/03/26 06:41:01;;;;;;;11.18;5.70;;;6.80;80.90;;;;;;6244071;22;20419;-73
2021/03/26 06:44:04;;;;;;;11.13;5.03;;;6.90;80.70;;;;;;6245271;23;20004;-73
2021/03/26 06:47:07;;;;;;;11.27;5.03;;;7.00;80.60;;;;;;6245128;22;20012;-73
2021/03/26 06:50:21;;;;;;;12.60;5.43;;;7.00;80.80;;;;;;6245162;22;20008;-73
2021/03/26 06:53:19;;;;;;;11.17;5.30;;;7.10;80.40;;;;;;6139051;23;20036;-73
2021/03/26 06:56:06;;;;;;;12.30;5.30;;;7.20;80.60;;;;;;6246008;23;20000;-74
2021/03/26 06:59:03;;;;;;;10.73;5.20;;;7.30;80.70;;;;;;6245023;23;20011;-72
2021/03/26 07:01:50;;;;;;;9.17;5.20;;;7.30;80.50;;;;;;6245216;23;20074;-72
2021/03/26 07:04:46;;;;;;;13.97;5.67;;;7.40;80.50;;;;;;6244941;23;20000;-72
2021/03/26 07:07:34;;;;;;;10.30;5.30;;;7.50;80.60;;;;;;6245095;23;20004;-72
2021/03/26 07:10:13;;;;;;;10.93;5.73;;;7.50;80.20;;;;;;6244204;22;20019;-73
2021/03/26 07:12:48;;;;;;;10.83;6.30;;;7.60;80.10;;;;;;6244658;23;20083;-72
2021/03/26 07:15:21;;;;;;;10.33;6.00;;;7.60;80.50;;;;;;6244551;23;20450;-73
2021/03/26 07:18:14;;;;;;;12.23;5.77;;;7.70;80.30;;;;;;6245810;23;20008;-75
2021/03/26 07:21:02;;;;;;;14.35;5.95;;;7.80;80.30;;;;;;6244570;23;20000;-72
2021/03/26 07:23:47;;;;;;;11.40;5.70;;;7.80;80.10;;;;;;6245199;23;19996;-72
2021/03/26 07:26:45;;;;;;;14.65;5.93;;;7.90;80.00;;;;;;6244782;23;20012;-73
2021/03/26 07:29:29;;;;;;;11.43;5.75;;;8.00;79.70;;;;;;6269662;22;20012;-72
2021/03/26 07:32:23;;;;;;;12.23;5.57;;;8.00;79.50;;;;;;6243783;23;20301;-73
2021/03/26 07:35:21;;;;;;;8.85;5.95;;;8.10;79.30;;;;;;6243388;23;20027;-74
2021/03/26 07:38:11;;;;;;;11.88;5.50;;;8.20;78.90;;;;;;6245757;23;20050;-76
2021/03/26 07:41:04;;;;;;;10.30;5.60;;;8.20;78.60;;;;;;6246294;23;20071;-72
2021/03/26 07:43:48;;;;;;;10.65;6.32;;;8.30;78.60;;;;;;6244801;23;20001;-72
2021/03/26 07:46:39;;;;;;;14.82;6.82;;;8.40;78.00;;;;;;6270160;22;20020;-72
2021/03/26 07:49:37;;;;;;;15.80;5.83;;;8.50;78.00;;;;;;6243773;23;20083;-72
2021/03/26 07:52:11;;;;;;;10.75;6.20;;;8.50;78.00;;;;;;6243589;23;20008;-72
2021/03/26 07:55:03;;;;;;;13.75;6.85;;;8.70;77.20;;;;;;6244369;23;20004;-72
2021/03/26 07:57:47;;;;;;;11.50;6.20;;;8.80;76.50;;;;;;6246026;23;20016;-72
2021/03/26 08:00:27;;;;;;;12.52;6.47;;;8.90;76.40;;;;;;6244062;23;20058;-72
2021/03/26 08:03:07;;;;;;;14.25;7.13;;;9.00;75.80;;;;;;6244024;23;20004;-71
2021/03/26 08:05:53;;;;;;;12.65;6.78;;;9.00;75.80;;;;;;6244523;23;20015;-72
2021/03/26 08:09:18;;;;;;;12.98;6.45;;;9.10;75.20;;;;;;6244612;23;20309;-72
2021/03/26 08:11:58;;;;;;;15.73;7.03;;;9.20;75.70;;;;;;6128208;23;20380;-72
2021/03/26 08:14:47;;;;;;;20.33;7.38;;;9.30;74.70;;;;;;6118994;23;20022;-72
2021/03/26 08:17:22;;;;;;;12.07;7.22;;;9.30;74.60;;;;;;6122755;23;20010;-72
2021/03/26 08:20:25;;;;;;;13.70;6.15;;;9.40;74.70;;;;;;6123131;23;20024;-75
2021/03/26 08:23:08;;;;;;;12.13;6.53;;;9.40;73.60;;;;;;6122495;23;20034;-75
2021/03/26 08:26:08;;;;;;;15.45;6.10;;;9.40;74.00;;;;;;6098551;23;20012;-72
2021/03/26 08:28:55;;;;;;;16.80;6.57;;;9.40;73.60;;;;;;6123380;23;20006;-72
2021/03/26 08:31:35;;;;;;;11.15;6.35;;;9.50;73.20;;;;;;6122923;23;20033;-72
2021/03/26 08:34:28;;;;;;;11.80;6.15;;;9.50;73.90;;;;;;6122189;23;20097;-73
2021/03/26 08:37:11;;;;;;;;;;;9.50;73.70;;;;;;6122463;23;20457;-73
2021/03/26 08:39:49;;;;;;;12.05;5.47;;;9.60;73.60;;;;;;6123005;23;19905;-72
2021/03/26 08:42:14;;;;;;;8.40;5.47;;;9.60;73.50;;;;;;6145926;23;20080;-72
2021/03/26 08:44:41;;;;;;;13.57;6.18;;;9.60;73.70;;;;;;6213417;23;20036;-72
2021/03/26 08:47:19;;;;;;;13.18;6.07;;;9.70;74.00;;;;;;6187294;23;20403;-72
2021/03/26 08:50:20;;;;;;;9.45;6.28;;;9.60;73.60;;;;;;6188314;23;20009;-72
2021/03/26 08:52:56;;;;;;;9.73;5.63;;;9.70;73.40;;;;;;6214922;23;20001;-71
2021/03/26 08:55:40;;;;;;;11.20;6.47;;;9.70;73.20;;;;;;6187778;23;20011;-73
2021/03/26 08:58:23;;;;;;;11.85;5.95;;;9.70;73.10;;;;;;6209942;23;20005;-73
2021/03/26 09:01:10;;;;;;;9.90;5.97;;;9.70;72.90;;;;;;6187311;23;20083;-77
2021/03/26 09:03:59;;;;;;;12.40;5.80;;;9.80;74.10;;;;;;6212331;23;20030;-73
2021/03/26 09:06:27;;;;;;;12.77;6.43;;;9.90;73.30;;;;;;6176073;23;20309;-73
2021/03/26 09:09:25;;;;;;;14.05;5.72;;;9.90;72.90;;;;;;6207464;23;20013;-73
2021/03/26 09:12:22;;;;;;;10.15;5.75;;;10.00;72.70;;;;;;6207400;23;20091;-73
2021/03/26 09:15:02;;;;;;;11.93;6.18;;;10.00;72.90;;;;;;6213215;22;20020;-73
2021/03/26 09:17:34;;;;;;;12.10;5.65;;;10.10;73.00;;;;;;6214338;23;20027;-73
2021/03/26 09:20:25;;;;;;;10.30;6.32;;;10.30;71.40;;;;;;6186872;23;20008;-72
2021/03/26 09:22:53;;;;;;;13.32;5.88;;;10.40;71.10;;;;;;6213805;23;20442;-74
2021/03/26 09:25:22;;;;;;;12.80;6.10;;;10.50;71.00;;;;;;6212379;23;20013;-72
2021/03/26 09:27:53;;;;;;;12.40;6.15;;;10.60;70.70;;;;;;6214601;23;20005;-73
2021/03/26 09:30:52;;;;;;;11.48;6.43;;;10.70;69.70;;;;;;6188407;23;20007;-72
2021/03/26 09:33:18;;;;;;;10.63;5.80;;;10.80;69.00;;;;;;6167338;23;20436;-72
2021/03/26 09:35:53;;;;;;;11.80;5.80;;;10.90;69.30;;;;;;6187787;23;20019;-72
2021/03/26 09:38:35;;;;;;;11.27;6.30;;;10.90;69.70;;;;;;6190294;23;20028;-72
2021/03/26 09:41:32;;;;;;;13.60;6.20;;;11.00;69.70;;;;;;6213280;23;20001;-72
2021/03/26 09:44:00;;;;;;;9.32;5.60;;;11.10;68.60;;;;;;6186135;23;20152;-73
2021/03/26 09:46:47;;;;;;;11.35;6.32;;;11.20;67.80;;;;;;6203443;23;20009;-73
2021/03/26 09:49:25;;;;;;;10.25;5.88;;;11.30;68.20;;;;;;6207835;23;20076;-73
2021/03/26 09:51:57;;;;;;;8.38;5.25;;;11.20;68.30;;;;;;6212986;23;20028;-74
2021/03/26 09:54:46;;;;;;;11.75;6.60;;;11.20;68.70;;;;;;6187782;23;20005;-73
2021/03/26 09:57:26;;;;;;;8.65;5.78;;;11.30;68.70;;;;;;6185446;23;20149;-74
2021/03/26 10:00:23;;;;;;;10.93;6.25;;;11.40;66.90;;;;;;6187638;23;20035;-75
2021/03/26 10:02:52;;;;;;;10.57;6.07;;;11.50;67.20;;;;;;6163784;23;20462;-73
2021/03/26 10:05:28;;;;;;;12.55;6.32;;;11.60;67.20;;;;;;6213500;23;20001;-73
2021/03/26 10:08:33;;;;;;;11.35;6.28;;;11.60;66.50;;;;;;6186950;23;20435;-74
2021/03/26 10:10:52;;;;;;;37.03;7.60;;;11.70;66.30;;;;;;6213409;23;20439;-75
2021/03/26 10:13:22;;;;;;;20.65;7.70;;;11.70;66.20;;;;;;6214845;23;20004;-74
2021/03/26 10:16:04;;;;;;;14.15;6.80;;;11.80;66.20;;;;;;6241358;23;20016;-73
2021/03/26 10:18:39;;;;;;;13.13;6.15;;;11.90;65.70;;;;;;6243433;23;20087;-73
2021/03/26 10:21:12;;;;;;;16.65;6.47;;;12.00;65.00;;;;;;6242698;23;20004;-71
2021/03/26 10:23:45;;;;;;;11.23;6.65;;;12.10;64.40;;;;;;6245030;23;19996;-73
2021/03/26 10:26:41;;;;;;;13.73;6.90;;;12.30;63.80;;;;;;6242279;23;20008;-72
2021/03/26 10:29:25;;;;;;;9.82;6.25;;;12.30;63.60;;;;;;6244176;23;19992;-74
2021/03/26 10:31:52;;;;;;;13.60;6.25;;;12.40;63.30;;;;;;6243652;23;20032;-74
2021/03/26 10:34:41;;;;;;;17.90;7.22;;;12.50;63.50;;;;;;6243247;23;20461;-73
2021/03/26 10:37:27;;;;;;;12.55;6.70;;;12.60;62.00;;;;;;6242543;23;20039;-75
2021/03/26 10:40:04;;;;;;;13.77;7.43;;;12.60;63.50;;;;;;6242430;23;20043;-76
2021/03/26 10:42:54;;;;;;;14.27;6.60;;;12.70;61.60;;;;;;6268953;22;20055;-73
2021/03/26 10:45:20;;;;;;;11.77;6.68;;;12.80;62.50;;;;;;6243330;23;20095;-73
2021/03/26 10:47:53;;;;;;;14.05;7.53;;;12.90;62.50;;;;;;6244897;23;20027;-74
2021/03/26 10:50:22;;;;;;;13.32;7.10;;;12.90;60.50;;;;;;6243421;23;20004;-73
2021/03/26 10:52:54;;;;;;;13.88;7.65;;;12.90;61.30;;;;;;6243479;23;20004;-74
2021/03/26 10:55:23;;;;;;;13.82;7.20;;;13.00;60.60;;;;;;6243125;23;20001;-74
2021/03/26 10:58:07;;;;;;;11.32;6.75;;;13.00;60.70;;;;;;6244850;23;19996;-74
2021/03/26 11:00:32;;;;;;;18.42;7.60;;;13.00;60.70;;;;;;6243402;23;20004;-75
2021/03/26 11:03:04;;;;;;;13.48;6.90;;;13.10;60.90;;;;;;6242048;22;20022;-75
2021/03/26 11:05:43;;;;;;;13.68;7.03;;;13.20;59.60;;;;;;6243317;23;20367;-75
2021/03/26 11:08:17;;;;;;;12.00;7.18;;;13.20;59.10;;;;;;6241827;23;20083;-74
2021/03/26 11:10:51;;;;;;;15.55;6.63;;;13.30;59.10;;;;;;6244351;23;20050;-76
2021/03/26 11:13:53;;;;;;;13.45;6.53;;;13.30;59.60;;;;;;6243929;23;20008;-75
2021/03/26 11:16:22;;;;;;;15.25;6.53;;;13.50;58.70;;;;;;6217817;23;20024;-74
2021/03/26 11:19:01;;;;;;;10.82;5.72;;;13.50;58.90;;;;;;6246266;23;20006;-74
2021/03/26 11:22:07;;;;;;;13.88;6.35;;;13.50;58.90;;;;;;6246614;23;19996;-73
2021/03/26 11:24:56;;;;;;;13.15;6.00;;;13.60;57.90;;;;;;6169753;23;20008;-73
2021/03/26 11:27:27;;;;;;;12.70;5.97;;;13.60;57.50;;;;;;6219793;23;20004;-73
2021/03/26 11:30:12;;;;;;;10.30;4.90;;;13.70;58.10;;;;;;6219762;23;20004;-73
2021/03/26 11:32:42;;;;;;;11.48;4.47;;;13.80;54.70;;;;;;6246211;23;19996;-73
2021/03/26 11:35:16;;;;;;;10.52;5.00;;;13.80;54.10;;;;;;6245678;23;20000;-73
2021/03/26 11:38:11;;;;;;;8.15;4.43;;;13.90;54.70;;;;;;6219840;23;20146;-72
2021/03/26 11:40:53;;;;;;;9.15;4.43;;;13.90;53.80;;;;;;6219623;23;20000;-72
2021/03/26 11:43:22;;;;;;;9.73;5.07;;;13.90;55.20;;;;;;6244352;23;20008;-73
2021/03/26 11:46:00;;;;;;;11.90;5.50;;;13.90;54.30;;;;;;6246260;23;20066;-73
2021/03/26 11:49:02;;;;;;;8.57;5.00;;;14.10;54.60;;;;;;6244855;23;19997;-72
2021/03/26 11:51:40;;;;;;;7.40;4.47;;;14.10;55.00;;;;;;6244024;23;20011;-72
2021/03/26 11:54:20;;;;;;;8.55;4.95;;;14.20;53.90;;;;;;6218530;23;20000;-73
2021/03/26 11:57:01;;;;;;;7.68;4.15;;;14.20;52.90;;;;;;6245505;23;20004;-72
2021/03/26 11:59:56;;;;;;;9.70;4.87;;;14.30;53.10;;;;;;6219180;23;20134;-72
2021/03/26 12:02:29;;;;;;;10.00;5.22;;;14.50;53.60;;;;;;6245779;23;19993;-72
2021/03/26 12:05:19;;;;;;;14.63;5.47;;;14.50;52.50;;;;;;6242541;23;20053;-73
2021/03/26 12:07:48;;;;;;;11.13;4.97;;;14.70;52.30;;;;;;6246281;23;20423;-73
2021/03/26 12:10:28;;;;;;;9.23;4.88;;;14.80;52.80;;;;;;6245148;23;20008;-73
2021/03/26 12:13:13;;;;;;;7.43;3.83;;;14.90;51.90;;;;;;6214042;23;20439;-72
2021/03/26 12:15:47;;;;;;;8.90;4.45;;;15.00;50.60;;;;;;6209677;23;20024;-72
2021/03/26 12:18:32;;;;;;;7.28;3.83;;;15.10;50.20;;;;;;6218689;23;20000;-72
2021/03/26 12:21:31;;;;;;;5.35;3.15;;;15.20;48.90;;;;;;6217399;23;20004;-73
2021/03/26 12:24:23;;;;;;;7.40;3.25;;;15.40;48.80;;;;;;6217761;23;20031;-74
2021/03/26 12:27:09;;;;;;;9.63;3.95;;;15.60;48.80;;;;;;6219278;23;20004;-74
2021/03/26 12:30:20;;;;;;;8.43;3.67;;;15.80;49.50;;;;;;6216671;23;20369;-73
2021/03/26 12:32:59;;;;;;;8.98;4.40;;;16.00;48.60;;;;;;6225792;23;20008;-72
2021/03/26 12:35:41;;;;;;;6.82;3.58;;;16.20;46.90;;;;;;6218953;23;20027;-73
2021/03/26 12:38:37;;;;;;;8.32;3.60;;;16.40;46.90;;;;;;6218632;23;20043;-73
2021/03/26 12:41:11;;;;;;;6.13;3.38;;;16.60;46.20;;;;;;6245187;23;19996;-74
2021/03/26 12:44:03;;;;;;;9.50;4.32;;;16.80;46.20;;;;;;6218554;23;20008;-73
2021/03/26 12:46:50;;;;;;;9.32;4.18;;;17.00;44.70;;;;;;6232995;23;20016;-73
2021/03/26 12:49:35;;;;;;;7.05;3.70;;;17.20;44.90;;;;;;6217863;23;20365;-74
2021/03/26 12:52:31;;;;;;;4.95;3.50;;;17.50;45.00;;;;;;6244933;23;19996;-73
2021/03/26 12:55:20;;;;;;;7.47;3.85;;;17.90;44.50;;;;;;6218535;23;20035;-74
2021/03/26 12:57:53;;;;;;;11.60;4.50;;;18.10;43.20;;;;;;6244962;23;20008;-75
2021/03/26 13:00:45;;;;;;;7.32;3.60;;;18.20;43.20;;;;;;6217647;23;20423;-73
2021/03/26 13:03:29;;;;;;;;;;;18.30;42.50;;;;;;6218388;23;20015;-78
2021/03/26 13:06:14;;;;;;;6.80;3.80;;;18.30;41.70;;;;;;6243651;23;20298;-72
2021/03/26 13:08:46;;;;;;;6.65;3.72;;;18.40;42.80;;;;;;6218604;23;20000;-73
2021/03/26 13:11:24;;;;;;;7.40;3.67;;;18.40;41.90;;;;;;6244551;23;20363;-73
2021/03/26 13:14:02;;;;;;;5.63;3.53;;;18.60;41.00;;;;;;6218046;23;20012;-73
2021/03/26 13:16:44;;;;;;;6.90;3.08;;;18.90;40.20;;;;;;6243886;23;20020;-79
2021/03/26 13:19:21;;;;;;;5.45;3.10;;;19.40;37.90;;;;;;6244257;23;20004;-74
2021/03/26 13:22:17;;;;;;;5.93;3.30;;;19.70;37.80;;;;;;6218070;23;20019;-72
2021/03/26 13:25:05;;;;;;;7.40;3.60;;;20.20;37.10;;;;;;6244926;23;20578;-73
2021/03/26 13:27:46;;;;;;;9.73;3.83;;;20.50;37.50;;;;;;6218526;23;20457;-72
2021/03/26 13:30:22;;;;;;;6.97;3.67;;;20.40;36.70;;;;;;6217791;23;20011;-72
2021/03/26 13:32:57;;;;;;;8.35;4.18;;;20.40;37.50;;;;;;6244765;23;19996;-73
2021/03/26 13:36:18;;;;;;;6.88;3.67;;;20.30;37.80;;;;;;6204933;23;20009;-72
2021/03/26 13:38:52;;;;;;;6.50;3.40;;;20.40;37.70;;;;;;6114460;23;20472;-73
2021/03/26 13:41:26;;;;;;;5.47;3.22;;;21.10;37.40;;;;;;6097548;23;20017;-76
2021/03/26 13:44:13;;;;;;;5.57;3.28;;;21.70;35.60;;;;;;6193573;23;20035;-76
2021/03/26 13:46:41;;;;;;;6.13;3.45;;;22.00;34.70;;;;;;6245023;23;20004;-75
2021/03/26 13:49:25;;;;;;;5.85;3.33;;;22.40;35.10;;;;;;6217867;23;20026;-76